Time;durP1;ratioP1;P1;durP2;ratioP2;P2;SDS_P1;SDS_P2;PMS_P1;PMS_P2;Temp;Humidity;BMP_temperature;BMP_pressure;BME280_temperature;BME280_humidity;BME280_pressure;Samples;Min_cycle;Max_cycle;Signal;HPM_P1;HPM_P2
2024/01/20 00:00:18;;;;;;;8.32;4.55;;;;;;;;;;5075415;28;20201;-61
2024/01/20 00:02:45;;;;;;;5.60;4.30;;;;;;;;;;5075338;28;20189;-61
2024/01/20 00:05:12;;;;;;;8.38;4.55;;;;;;;;;;5075238;28;20326;-61
2024/01/20 00:07:39;;;;;;;9.80;5.38;;;;;;;;;;5075154;28;20255;-61
2024/01/20 00:10:10;;;;;;;5.35;3.92;;;;;;;;;;5075105;28;20300;-61
2024/01/20 00:12:37;;;;;;;10.82;4.60;;;;;;;;;;5075277;28;20203;-61
2024/01/20 00:15:07;;;;;;;8.60;4.88;;;;;;;;;;5075121;28;20620;-62
2024/01/20 00:17:34;;;;;;;8.25;4.53;;;;;;;;;;5075094;28;20189;-61
2024/01/20 00:20:01;;;;;;;9.13;4.43;;;;;;;;;;5074563;28;20224;-61
2024/01/20 00:22:28;;;;;;;11.85;4.03;;;;;;;;;;5074936;28;20641;-61
2024/01/20 00:24:58;;;;;;;6.88;4.80;;;;;;;;;;5074560;28;20213;-61
2024/01/20 00:27:25;;;;;;;8.88;5.03;;;;;;;;;;5074992;28;20641;-61
2024/01/20 00:29:52;;;;;;;10.95;4.55;;;;;;;;;;5074782;28;20277;-61
2024/01/20 00:32:20;;;;;;;8.35;4.45;;;;;;;;;;5074720;28;20185;-61
2024/01/20 00:34:47;;;;;;;7.20;4.43;;;;;;;;;;5074513;28;20719;-61
2024/01/20 00:37:14;;;;;;;9.75;5.05;;;;;;;;;;5074511;28;20272;-61
2024/01/20 00:39:41;;;;;;;6.05;4.13;;;;;;;;;;5074399;28;20196;-61
2024/01/20 00:42:08;;;;;;;5.13;4.47;;;;;;;;;;5074502;28;20280;-61
2024/01/20 00:44:35;;;;;;;8.27;5.05;;;;;;;;;;5074416;28;20617;-61
2024/01/20 00:47:02;;;;;;;12.80;4.88;;;;;;;;;;5074387;28;20195;-62
2024/01/20 00:49:30;;;;;;;5.30;4.53;;;;;;;;;;5074718;28;20359;-61
2024/01/20 00:51:57;;;;;;;9.55;4.70;;;;;;;;;;5074183;28;20280;-61
2024/01/20 00:54:24;;;;;;;8.70;4.97;;;;;;;;;;5074381;28;20189;-61
2024/01/20 00:56:51;;;;;;;8.77;5.55;;;;;;;;;;5074257;28;20221;-61
2024/01/20 00:59:18;;;;;;;8.50;4.22;;;;;;;;;;5074137;28;20609;-61
2024/01/20 01:01:45;;;;;;;9.93;5.03;;;;;;;;;;5074022;28;20185;-61
2024/01/20 01:04:12;;;;;;;9.00;5.20;;;;;;;;;;5074599;28;20228;-61
2024/01/20 01:06:41;;;;;;;6.05;4.07;;;;;;;;;;5073917;28;20276;-61
2024/01/20 01:09:08;;;;;;;6.75;4.60;;;;;;;;;;5074060;28;20190;-62
2024/01/20 01:11:35;;;;;;;8.27;4.82;;;;;;;;;;5073984;28;20235;-61
2024/01/20 01:14:01;;;;;;;9.07;5.13;;;;;;;;;;5073882;28;20669;-61
2024/01/20 01:16:28;;;;;;;9.93;4.75;;;;;;;;;;5074112;28;20283;-62
2024/01/20 01:18:55;;;;;;;8.65;5.45;;;;;;;;;;5073625;28;20196;-61
2024/01/20 01:21:22;;;;;;;7.88;5.07;;;;;;;;;;5073630;28;20328;-61
2024/01/20 01:23:50;;;;;;;7.22;4.80;;;;;;;;;;5073709;28;20185;-62
2024/01/20 01:26:19;;;;;;;8.82;4.95;;;;;;;;;;5073622;28;20223;-61
2024/01/20 01:28:46;;;;;;;11.02;5.03;;;;;;;;;;5073632;28;20684;-61
2024/01/20 01:31:13;;;;;;;9.70;5.25;;;;;;;;;;5073390;28;20276;-61
2024/01/20 01:33:40;;;;;;;7.70;5.20;;;;;;;;;;5073008;28;20280;-62
2024/01/20 01:36:07;;;;;;;5.38;4.82;;;;;;;;;;5073614;28;20607;-61
2024/01/20 01:38:34;;;;;;;6.97;5.00;;;;;;;;;;5073515;28;20199;-61
2024/01/20 01:41:03;;;;;;;9.95;4.90;;;;;;;;;;5073433;28;20623;-61
2024/01/20 01:43:30;;;;;;;13.45;6.38;;;;;;;;;;5073327;28;20191;-61
2024/01/20 01:45:57;;;;;;;9.35;5.65;;;;;;;;;;5073195;28;20719;-61
2024/01/20 01:48:24;;;;;;;10.18;5.22;;;;;;;;;;5073121;28;20276;-61
2024/01/20 01:50:51;;;;;;;8.45;5.00;;;;;;;;;;5073408;28;20242;-61
2024/01/20 01:53:18;;;;;;;7.82;4.78;;;;;;;;;;5073261;28;20196;-61
2024/01/20 01:55:47;;;;;;;13.80;5.90;;;;;;;;;;5073384;28;20188;-61
2024/01/20 01:58:16;;;;;;;7.25;5.00;;;;;;;;;;5073374;28;20204;-61
2024/01/20 02:00:43;;;;;;;8.57;5.47;;;;;;;;;;5072999;28;20281;-61
2024/01/20 02:03:10;;;;;;;10.63;6.05;;;;;;;;;;5073285;28;20608;-61
2024/01/20 02:05:37;;;;;;;17.30;5.55;;;;;;;;;;5073043;28;20253;-61
2024/01/20 02:08:05;;;;;;;8.10;5.63;;;;;;;;;;5073129;28;20280;-61
2024/01/20 02:10:32;;;;;;;9.90;5.53;;;;;;;;;;5072968;28;20226;-61
2024/01/20 02:13:00;;;;;;;9.70;5.32;;;;;;;;;;5073007;28;20664;-61
2024/01/20 02:15:28;;;;;;;5.75;5.03;;;;;;;;;;5072849;28;20200;-61
2024/01/20 02:17:56;;;;;;;9.80;5.53;;;;;;;;;;5073247;28;20276;-62
2024/01/20 02:20:23;;;;;;;10.05;6.20;;;;;;;;;;5072888;28;20217;-61
2024/01/20 02:22:52;;;;;;;9.65;5.78;;;;;;;;;;5072897;28;20625;-61
2024/01/20 02:25:19;;;;;;;8.73;5.68;;;;;;;;;;5072807;28;20217;-61
2024/01/20 02:27:45;;;;;;;9.25;5.40;;;;;;;;;;5072721;28;20272;-61
2024/01/20 02:30:13;;;;;;;6.80;5.30;;;;;;;;;;5072762;28;20197;-61
2024/01/20 02:32:39;;;;;;;10.38;5.68;;;;;;;;;;5072947;28;20613;-61
2024/01/20 02:35:07;;;;;;;8.30;5.78;;;;;;;;;;5072803;28;20292;-61
2024/01/20 02:37:34;;;;;;;8.32;6.55;;;;;;;;;;5072779;28;20281;-61
2024/01/20 02:40:02;;;;;;;10.65;6.28;;;;;;;;;;5072674;28;20192;-61
2024/01/20 02:42:29;;;;;;;9.80;5.85;;;;;;;;;;5072667;28;20568;-61
2024/01/20 02:44:56;;;;;;;11.20;6.13;;;;;;;;;;5074645;28;22614;-61
2024/01/20 02:47:23;;;;;;;11.05;5.93;;;;;;;;;;5076706;28;20195;-61
2024/01/20 02:49:50;;;;;;;9.75;6.05;;;;;;;;;;5076775;28;20215;-61
2024/01/20 02:52:17;;;;;;;20.75;7.07;;;;;;;;;;5076517;28;20189;-62
2024/01/20 02:54:44;;;;;;;13.82;6.50;;;;;;;;;;5076514;28;20189;-61
2024/01/20 02:57:12;;;;;;;9.90;6.55;;;;;;;;;;5076371;28;20199;-61
2024/01/20 02:59:39;;;;;;;8.75;5.82;;;;;;;;;;5076511;28;20196;-61
2024/01/20 03:02:06;;;;;;;8.20;6.00;;;;;;;;;;5076517;28;20192;-61
2024/01/20 03:04:33;;;;;;;11.50;6.22;;;;;;;;;;5076376;28;20548;-61
2024/01/20 03:07:00;;;;;;;11.32;4.95;;;;;;;;;;5076151;28;20231;-61
2024/01/20 03:09:27;;;;;;;10.90;6.82;;;;;;;;;;5076167;28;20189;-62
2024/01/20 03:11:54;;;;;;;14.73;7.20;;;;;;;;;;5076376;28;20189;-61
2024/01/20 03:14:22;;;;;;;7.45;5.47;;;;;;;;;;5076234;28;20275;-61
2024/01/20 03:16:49;;;;;;;9.85;6.70;;;;;;;;;;5076142;28;20189;-61
2024/01/20 03:19:16;;;;;;;10.80;6.40;;;;;;;;;;5076033;28;20275;-61
2024/01/20 03:21:43;;;;;;;11.00;6.75;;;;;;;;;;5076451;28;20307;-61
2024/01/20 03:24:10;;;;;;;11.25;6.15;;;;;;;;;;5075882;28;20228;-61
2024/01/20 03:26:37;;;;;;;7.07;5.30;;;;;;;;;;5075954;28;20255;-61
2024/01/20 03:29:04;;;;;;;9.10;5.93;;;;;;;;;;5076015;28;20561;-61
2024/01/20 03:31:32;;;;;;;15.52;6.95;;;;;;;;;;5075737;28;20662;-61
2024/01/20 03:33:59;;;;;;;9.95;6.40;;;;;;;;;;5076035;28;20189;-61
2024/01/20 03:36:26;;;;;;;10.02;6.28;;;;;;;;;;5075695;28;20239;-61
2024/01/20 03:38:53;;;;;;;10.45;6.15;;;;;;;;;;5075609;28;20195;-61
2024/01/20 03:41:20;;;;;;;10.30;5.75;;;;;;;;;;5075779;28;20196;-61
2024/01/20 03:43:47;;;;;;;10.27;6.63;;;;;;;;;;5075663;28;20196;-61
2024/01/20 03:46:14;;;;;;;15.00;6.47;;;;;;;;;;5075590;28;20220;-61
2024/01/20 03:48:42;;;;;;;8.43;5.95;;;;;;;;;;5075509;28;20302;-61
2024/01/20 03:51:10;;;;;;;8.43;5.80;;;;;;;;;;5075302;28;20645;-61
2024/01/20 03:53:37;;;;;;;15.18;7.13;;;;;;;;;;5075723;28;20285;-61
2024/01/20 03:56:04;;;;;;;11.73;6.45;;;;;;;;;;5075015;28;20648;-61
2024/01/20 03:58:31;;;;;;;9.18;5.75;;;;;;;;;;5075394;28;20617;-61
2024/01/20 04:00:58;;;;;;;7.72;6.05;;;;;;;;;;5075334;28;20196;-61
2024/01/20 04:03:25;;;;;;;11.93;6.30;;;;;;;;;;5075426;28;20189;-61
2024/01/20 04:05:54;;;;;;;9.18;5.57;;;;;;;;;;5075033;28;20247;-61
2024/01/20 04:08:21;;;;;;;8.68;6.07;;;;;;;;;;5075582;28;20285;-61
2024/01/20 04:10:48;;;;;;;9.32;5.97;;;;;;;;;;5075089;28;20706;-61
2024/01/20 04:13:15;;;;;;;9.70;6.38;;;;;;;;;;5075155;28;20289;-61
2024/01/20 04:15:43;;;;;;;13.43;7.43;;;;;;;;;;5075010;28;20195;-62
2024/01/20 04:18:10;;;;;;;12.48;6.80;;;;;;;;;;5074947;28;20193;-60
2024/01/20 04:20:37;;;;;;;11.35;6.65;;;;;;;;;;5074717;28;20225;-61
2024/01/20 04:23:06;;;;;;;7.63;5.78;;;;;;;;;;5075013;28;20628;-61
2024/01/20 04:25:33;;;;;;;10.02;7.30;;;;;;;;;;5074820;28;20259;-61
2024/01/20 04:27:59;;;;;;;7.65;6.25;;;;;;;;;;5074798;28;20195;-61
2024/01/20 04:30:26;;;;;;;12.93;7.30;;;;;;;;;;5074728;28;20546;-61
2024/01/20 04:32:53;;;;;;;10.52;6.90;;;;;;;;;;5074538;28;20195;-61
2024/01/20 04:35:20;;;;;;;14.05;6.80;;;;;;;;;;5074723;28;20189;-62
2024/01/20 04:37:47;;;;;;;7.97;6.05;;;;;;;;;;5074679;28;20189;-61
2024/01/20 04:40:15;;;;;;;10.85;6.82;;;;;;;;;;5074624;28;20188;-62
2024/01/20 04:42:42;;;;;;;8.13;5.72;;;;;;;;;;5074288;28;20613;-61
2024/01/20 04:45:13;;;;;;;9.15;6.20;;;;;;;;;;5074405;28;20625;-61
2024/01/20 04:47:40;;;;;;;10.35;6.25;;;;;;;;;;5074829;28;20188;-61
2024/01/20 04:50:07;;;;;;;10.63;8.00;;;;;;;;;;5074415;28;20198;-61
2024/01/20 04:52:34;;;;;;;10.27;6.70;;;;;;;;;;5074351;28;20579;-61
2024/01/20 04:55:02;;;;;;;8.85;6.50;;;;;;;;;;5074239;28;20283;-61
2024/01/20 04:57:30;;;;;;;8.95;7.03;;;;;;;;;;5074106;28;20197;-61
2024/01/20 04:59:57;;;;;;;12.15;7.10;;;;;;;;;;5073999;28;20280;-61
2024/01/20 05:02:24;;;;;;;11.32;7.00;;;;;;;;;;5074179;28;20276;-62
2024/01/20 05:04:50;;;;;;;13.25;7.18;;;;;;;;;;5074223;28;20637;-62
2024/01/20 05:07:18;;;;;;;13.13;8.65;;;;;;;;;;5073070;28;20221;-61
2024/01/20 05:09:44;;;;;;;9.70;5.90;;;;;;;;;;5074228;28;20235;-61
2024/01/20 05:12:11;;;;;;;11.43;6.85;;;;;;;;;;5073828;28;20185;-61
2024/01/20 05:14:40;;;;;;;16.65;7.68;;;;;;;;;;5073883;28;20601;-62
2024/01/20 05:17:07;;;;;;;11.55;7.78;;;;;;;;;;5073905;28;20196;-62
2024/01/20 05:19:33;;;;;;;8.50;7.05;;;;;;;;;;5073647;28;20223;-62
2024/01/20 05:22:00;;;;;;;12.13;7.63;;;;;;;;;;5073824;28;20630;-61
2024/01/20 05:24:27;;;;;;;9.32;7.55;;;;;;;;;;5073599;28;20276;-61
2024/01/20 05:26:54;;;;;;;7.45;6.45;;;;;;;;;;5073533;28;20221;-62
2024/01/20 05:29:21;;;;;;;13.43;7.82;;;;;;;;;;5073467;28;20648;-61
2024/01/20 05:31:50;;;;;;;12.02;8.00;;;;;;;;;;5073665;28;20603;-61
2024/01/20 05:34:16;;;;;;;7.80;6.05;;;;;;;;;;5073551;28;20192;-61
2024/01/20 05:36:43;;;;;;;10.88;7.50;;;;;;;;;;5073422;28;20221;-61
2024/01/20 05:39:10;;;;;;;9.75;6.95;;;;;;;;;;5073385;28;20200;-61
2024/01/20 05:41:37;;;;;;;10.23;7.32;;;;;;;;;;5073220;28;20280;-61
2024/01/20 05:44:04;;;;;;;10.40;7.25;;;;;;;;;;5073372;28;20195;-61
2024/01/20 05:46:32;;;;;;;12.05;7.70;;;;;;;;;;5073356;28;20294;-61
2024/01/20 05:49:00;;;;;;;9.50;7.90;;;;;;;;;;5073232;28;20225;-61
2024/01/20 05:51:27;;;;;;;11.23;6.97;;;;;;;;;;5073187;28;20208;-62
2024/01/20 05:53:54;;;;;;;9.23;6.60;;;;;;;;;;5073207;28;20238;-61
2024/01/20 05:56:23;;;;;;;12.85;7.65;;;;;;;;;;5073120;28;20624;-61
2024/01/20 05:58:50;;;;;;;9.70;6.90;;;;;;;;;;5073299;28;20274;-61
2024/01/20 06:01:17;;;;;;;8.27;7.18;;;;;;;;;;5073258;28;20557;-61
2024/01/20 06:03:44;;;;;;;12.32;7.50;;;;;;;;;;5073179;28;20189;-61
2024/01/20 06:06:13;;;;;;;11.70;7.68;;;;;;;;;;5072963;28;20220;-61
2024/01/20 06:08:40;;;;;;;11.93;7.70;;;;;;;;;;5072950;28;20572;-61
2024/01/20 06:11:07;;;;;;;8.73;7.53;;;;;;;;;;5073135;28;20200;-61
2024/01/20 06:13:34;;;;;;;12.30;7.85;;;;;;;;;;5073093;28;20281;-61
2024/01/20 06:16:00;;;;;;;14.48;8.13;;;;;;;;;;5073015;28;20284;-61
2024/01/20 06:18:27;;;;;;;13.82;7.50;;;;;;;;;;5072694;28;20630;-61
2024/01/20 06:20:55;;;;;;;11.05;6.90;;;;;;;;;;5072856;28;20221;-61
2024/01/20 06:23:23;;;;;;;16.13;8.32;;;;;;;;;;5072828;28;20200;-61
2024/01/20 06:25:50;;;;;;;10.45;7.45;;;;;;;;;;5072952;28;20217;-61
2024/01/20 06:28:17;;;;;;;14.75;8.13;;;;;;;;;;5072936;28;20192;-61
2024/01/20 06:30:46;;;;;;;9.80;7.20;;;;;;;;;;5072818;28;20200;-61
2024/01/20 06:33:13;;;;;;;8.32;6.90;;;;;;;;;;5072814;28;20189;-61
2024/01/20 06:35:40;;;;;;;14.85;8.02;;;;;;;;;;5072761;28;20280;-61
2024/01/20 06:38:07;;;;;;;9.23;7.43;;;;;;;;;;5072667;28;20570;-61
2024/01/20 06:40:35;;;;;;;12.65;7.35;;;;;;;;;;5072623;28;20676;-61
2024/01/20 06:43:03;;;;;;;14.63;7.15;;;;;;;;;;5073066;28;20185;-61
2024/01/20 06:45:33;;;;;;;11.57;7.55;;;;;;;;;;5072759;28;20185;-61
2024/01/20 06:48:01;;;;;;;15.90;8.20;;;;;;;;;;5072686;28;20209;-61
2024/01/20 06:50:28;;;;;;;16.30;7.80;;;;;;;;;;5072450;28;20193;-61
2024/01/20 06:52:55;;;;;;;11.05;8.55;;;;;;;;;;5072944;28;20196;-61
2024/01/20 06:55:21;;;;;;;9.60;7.10;;;;;;;;;;5072656;28;20276;-61
2024/01/20 06:57:50;;;;;;;11.25;8.25;;;;;;;;;;5072529;28;20192;-61
2024/01/20 07:00:17;;;;;;;13.07;7.90;;;;;;;;;;5072564;28;20556;-61
2024/01/20 07:02:44;;;;;;;10.55;8.00;;;;;;;;;;5072348;28;20645;-61
2024/01/20 07:05:11;;;;;;;12.43;8.35;;;;;;;;;;5072357;28;20185;-61
2024/01/20 07:07:38;;;;;;;10.43;7.50;;;;;;;;;;5072494;28;20227;-61
2024/01/20 07:10:06;;;;;;;10.50;8.32;;;;;;;;;;5072499;28;20190;-61
2024/01/20 07:12:33;;;;;;;13.50;8.52;;;;;;;;;;5072586;28;20530;-61
2024/01/20 07:15:01;;;;;;;12.85;8.85;;;;;;;;;;5072656;28;20288;-61
2024/01/20 07:17:28;;;;;;;11.52;8.27;;;;;;;;;;5072259;28;20289;-61
2024/01/20 07:19:55;;;;;;;12.48;8.57;;;;;;;;;;5072064;28;20714;-62
2024/01/20 07:22:22;;;;;;;9.43;7.28;;;;;;;;;;5072402;28;20200;-61
2024/01/20 07:24:48;;;;;;;12.10;8.07;;;;;;;;;;5072349;28;20194;-61
2024/01/20 07:27:15;;;;;;;10.23;7.93;;;;;;;;;;5072177;28;20599;-61
2024/01/20 07:29:42;;;;;;;13.80;9.60;;;;;;;;;;5072372;28;20190;-61
2024/01/20 07:32:11;;;;;;;16.77;9.18;;;;;;;;;;5075729;28;20196;-61
2024/01/20 07:34:38;;;;;;;12.82;8.88;;;;;;;;;;5075891;28;20194;-61
2024/01/20 07:37:05;;;;;;;14.45;8.82;;;;;;;;;;5075785;28;20189;-61
2024/01/20 07:39:32;;;;;;;13.93;8.30;;;;;;;;;;5075732;28;20189;-61
2024/01/20 07:41:59;;;;;;;15.20;9.10;;;;;;;;;;5075586;28;20276;-61
2024/01/20 07:44:26;;;;;;;11.13;9.13;;;;;;;;;;5075779;28;20712;-61
2024/01/20 07:46:53;;;;;;;13.80;9.13;;;;;;;;;;5075421;28;20305;-61
2024/01/20 07:49:21;;;;;;;12.95;8.32;;;;;;;;;;5075655;28;20195;-61
2024/01/20 07:51:49;;;;;;;13.40;9.10;;;;;;;;;;5075458;28;20193;-61
2024/01/20 07:54:16;;;;;;;11.18;8.85;;;;;;;;;;5075498;28;20247;-61
2024/01/20 07:56:43;;;;;;;9.90;8.90;;;;;;;;;;5075385;28;20239;-61
2024/01/20 07:59:10;;;;;;;15.15;9.35;;;;;;;;;;5075283;28;20192;-61
2024/01/20 08:01:37;;;;;;;10.63;8.80;;;;;;;;;;5075397;28;20272;-61
2024/01/20 08:04:04;;;;;;;12.73;8.10;;;;;;;;;;5075329;28;20189;-61
2024/01/20 08:06:32;;;;;;;14.73;8.02;;;;;;;;;;5075239;28;20201;-61
2024/01/20 08:08:59;;;;;;;10.88;8.25;;;;;;;;;;5075176;28;20192;-61
2024/01/20 08:11:26;;;;;;;12.15;8.75;;;;;;;;;;5075014;28;20645;-61
2024/01/20 08:13:53;;;;;;;12.80;9.45;;;;;;;;;;5075337;28;20281;-61
2024/01/20 08:16:20;;;;;;;13.60;8.77;;;;;;;;;;5075086;28;20181;-61
2024/01/20 08:18:47;;;;;;;15.05;9.23;;;;;;;;;;5075274;28;20597;-61
2024/01/20 08:21:14;;;;;;;15.13;10.30;;;;;;;;;;5074758;28;20217;-61
2024/01/20 08:23:43;;;;;;;17.83;9.32;;;;;;;;;;5074853;28;20235;-62
2024/01/20 08:26:10;;;;;;;17.80;10.13;;;;;;;;;;5074714;28;20189;-61
2024/01/20 08:28:37;;;;;;;17.42;9.95;;;;;;;;;;5074599;28;20304;-62
2024/01/20 08:31:04;;;;;;;13.77;8.73;;;;;;;;;;5074950;28;20185;-61
2024/01/20 08:33:31;;;;;;;17.08;8.60;;;;;;;;;;5074723;28;20195;-61
2024/01/20 08:35:58;;;;;;;14.32;9.02;;;;;;;;;;5074481;28;20189;-61
2024/01/20 08:38:25;;;;;;;10.98;7.97;;;;;;;;;;5074360;28;20611;-61
2024/01/20 08:40:54;;;;;;;11.30;8.30;;;;;;;;;;5074609;28;20199;-62
2024/01/20 08:43:20;;;;;;;12.77;8.52;;;;;;;;;;5074575;28;20276;-61
2024/01/20 08:45:47;;;;;;;13.85;9.13;;;;;;;;;;5074497;28;20216;-61
2024/01/20 08:48:14;;;;;;;15.38;8.10;;;;;;;;;;5074320;28;20316;-61
2024/01/20 08:50:41;;;;;;;9.88;7.95;;;;;;;;;;5074251;28;20185;-61
2024/01/20 08:53:08;;;;;;;15.48;9.30;;;;;;;;;;5074201;28;20272;-61
2024/01/20 08:55:35;;;;;;;12.82;8.82;;;;;;;;;;5073978;28;20682;-62
2024/01/20 08:58:04;;;;;;;17.70;9.60;;;;;;;;;;5074297;28;20279;-61
2024/01/20 09:00:31;;;;;;;13.20;8.48;;;;;;;;;;5074375;28;20288;-62
2024/01/20 09:02:57;;;;;;;10.15;7.88;;;;;;;;;;5074216;28;20203;-62
2024/01/20 09:05:24;;;;;;;10.43;7.50;;;;;;;;;;5074087;28;20189;-62
2024/01/20 09:07:51;;;;;;;12.27;9.65;;;;;;;;;;5073713;28;20300;-61
2024/01/20 09:10:18;;;;;;;11.30;8.02;;;;;;;;;;5074306;28;20189;-62
2024/01/20 09:12:45;;;;;;;11.00;7.25;;;;;;;;;;5073860;28;20647;-61
2024/01/20 09:15:14;;;;;;;8.88;7.50;;;;;;;;;;5073746;28;20196;-61
2024/01/20 09:17:40;;;;;;;14.75;8.50;;;;;;;;;;5074051;28;20190;-61
2024/01/20 09:20:08;;;;;;;11.25;8.05;;;;;;;;;;5073581;28;20256;-61
2024/01/20 09:22:35;;;;;;;12.45;8.43;;;;;;;;;;5073580;28;20279;-61
2024/01/20 09:25:03;;;;;;;9.23;7.75;;;;;;;;;;5073784;28;20189;-61
2024/01/20 09:27:30;;;;;;;8.07;7.07;;;;;;;;;;5073587;28;20256;-61
2024/01/20 09:29:57;;;;;;;10.20;7.05;;;;;;;;;;5073623;28;20383;-61
2024/01/20 09:32:26;;;;;;;11.45;8.60;;;;;;;;;;5073527;28;20273;-62
2024/01/20 09:34:53;;;;;;;12.98;8.05;;;;;;;;;;5073339;28;20185;-62
2024/01/20 09:37:20;;;;;;;11.93;8.82;;;;;;;;;;5073261;28;20194;-61
2024/01/20 09:39:47;;;;;;;10.20;7.63;;;;;;;;;;5073508;28;20273;-61
2024/01/20 09:42:15;;;;;;;13.80;8.35;;;;;;;;;;5073403;28;20193;-61
2024/01/20 09:44:42;;;;;;;13.18;8.02;;;;;;;;;;5073308;28;20198;-61
2024/01/20 09:47:10;;;;;;;13.77;7.60;;;;;;;;;;5073199;28;20300;-62
2024/01/20 09:49:38;;;;;;;8.60;7.18;;;;;;;;;;5073172;28;20717;-61
2024/01/20 09:52:09;;;;;;;9.27;7.97;;;;;;;;;;5073422;28;20275;-61
2024/01/20 09:54:38;;;;;;;9.55;7.95;;;;;;;;;;5072867;28;20197;-61
2024/01/20 09:57:05;;;;;;;11.40;7.40;;;;;;;;;;5073164;28;20279;-61
2024/01/20 09:59:33;;;;;;;10.52;7.05;;;;;;;;;;5073111;28;20272;-62
2024/01/20 10:02:00;;;;;;;9.75;6.78;;;;;;;;;;5073030;28;20211;-62
2024/01/20 10:04:28;;;;;;;11.25;6.60;;;;;;;;;;5073176;28;20276;-61
2024/01/20 10:06:56;;;;;;;9.32;7.25;;;;;;;;;;5073340;28;20328;-63
2024/01/20 10:09:24;;;;;;;11.43;7.30;;;;;;;;;;5072920;28;20185;-62
2024/01/20 10:11:51;;;;;;;11.25;7.75;;;;;;;;;;5072932;28;20522;-62
2024/01/20 10:14:18;;;;;;;10.05;8.05;;;;;;;;;;5072899;28;20189;-61
2024/01/20 10:16:45;;;;;;;14.20;7.70;;;;;;;;;;5072823;28;20189;-62
2024/01/20 10:19:11;;;;;;;8.80;7.85;;;;;;;;;;5073116;28;20193;-61
2024/01/20 10:21:42;;;;;;;10.55;8.35;;;;;;;;;;5072915;28;20633;-62
2024/01/20 10:24:10;;;;;;;12.13;7.55;;;;;;;;;;5072911;28;20193;-61
2024/01/20 10:26:43;;;;;;;12.70;7.00;;;;;;;;;;5072741;28;20706;-61
2024/01/20 10:29:10;;;;;;;8.25;7.35;;;;;;;;;;5072536;28;20718;-61
2024/01/20 10:31:37;;;;;;;10.40;7.22;;;;;;;;;;5072841;28;20185;-62
2024/01/20 10:34:04;;;;;;;14.57;7.38;;;;;;;;;;5073127;28;20189;-62
2024/01/20 10:36:31;;;;;;;7.53;6.07;;;;;;;;;;5072953;28;20572;-62
2024/01/20 10:39:02;;;;;;;9.30;7.47;;;;;;;;;;5072975;28;20193;-62
2024/01/20 10:41:30;;;;;;;7.85;6.10;;;;;;;;;;5072664;28;20224;-62
2024/01/20 10:44:01;;;;;;;14.10;7.22;;;;;;;;;;5072793;28;20268;-62
2024/01/20 10:46:29;;;;;;;8.23;6.60;;;;;;;;;;5072822;28;20215;-62
2024/01/20 10:49:00;;;;;;;8.13;6.20;;;;;;;;;;5072640;28;20213;-61
2024/01/20 10:51:28;;;;;;;7.20;6.32;;;;;;;;;;5072553;28;20752;-61
2024/01/20 10:53:56;;;;;;;7.75;7.03;;;;;;;;;;5072703;28;20579;-61
2024/01/20 10:56:24;;;;;;;12.70;6.65;;;;;;;;;;5072442;28;20274;-61
2024/01/20 10:58:55;;;;;;;11.90;6.68;;;;;;;;;;5072642;28;20197;-62
2024/01/20 11:01:23;;;;;;;7.00;5.65;;;;;;;;;;5072636;28;20281;-61
2024/01/20 11:03:50;;;;;;;9.95;7.22;;;;;;;;;;5072473;28;20604;-61
2024/01/20 11:06:20;;;;;;;10.98;7.13;;;;;;;;;;5074957;28;20192;-61
2024/01/20 11:08:50;;;;;;;10.00;6.78;;;;;;;;;;5076220;28;20335;-61
2024/01/20 11:11:18;;;;;;;12.02;7.10;;;;;;;;;;5076406;28;20199;-61
2024/01/20 11:13:46;;;;;;;8.38;7.20;;;;;;;;;;5076206;28;20648;-61
2024/01/20 11:16:20;;;;;;;10.73;6.90;;;;;;;;;;5076166;28;20212;-61
2024/01/20 11:18:47;;;;;;;11.57;7.35;;;;;;;;;;5076008;28;20185;-61
2024/01/20 11:21:16;;;;;;;13.88;7.30;;;;;;;;;;5075744;28;20216;-61
2024/01/20 11:23:46;;;;;;;13.05;7.93;;;;;;;;;;5076134;28;20185;-61
2024/01/20 11:26:13;;;;;;;9.73;7.90;;;;;;;;;;5076081;28;20185;-61
2024/01/20 11:28:44;;;;;;;10.05;6.95;;;;;;;;;;5075692;28;20676;-61
2024/01/20 11:31:18;;;;;;;8.23;6.32;;;;;;;;;;5075755;28;20248;-62
2024/01/20 11:33:47;;;;;;;8.32;7.03;;;;;;;;;;5075688;28;20197;-61
2024/01/20 11:36:14;;;;;;;11.32;7.22;;;;;;;;;;5075872;28;20185;-61
2024/01/20 11:38:42;;;;;;;10.80;7.50;;;;;;;;;;5075872;28;20624;-61
2024/01/20 11:41:09;;;;;;;8.85;7.20;;;;;;;;;;5075703;28;20196;-61
2024/01/20 11:43:36;;;;;;;10.23;6.97;;;;;;;;;;5075664;28;20625;-61
2024/01/20 11:46:03;;;;;;;11.77;7.35;;;;;;;;;;5075636;28;20196;-61
2024/01/20 11:48:31;;;;;;;7.40;6.60;;;;;;;;;;5075329;28;20213;-61
2024/01/20 11:50:59;;;;;;;9.07;7.60;;;;;;;;;;5075642;28;20280;-61
2024/01/20 11:53:26;;;;;;;10.70;7.55;;;;;;;;;;5075413;28;20242;-61
2024/01/20 11:55:54;;;;;;;8.90;7.05;;;;;;;;;;5075233;28;20232;-61
2024/01/20 11:58:21;;;;;;;14.32;8.07;;;;;;;;;;5075384;28;20233;-61
2024/01/20 12:00:48;;;;;;;9.23;8.00;;;;;;;;;;5075295;28;20189;-61
2024/01/20 12:03:15;;;;;;;10.32;6.72;;;;;;;;;;5075482;28;20185;-61
2024/01/20 12:05:42;;;;;;;14.10;8.00;;;;;;;;;;5075384;28;20635;-61
2024/01/20 12:08:10;;;;;;;12.57;8.07;;;;;;;;;;5075175;28;20308;-61
2024/01/20 12:10:37;;;;;;;11.00;7.32;;;;;;;;;;5075170;28;20196;-61
2024/01/20 12:13:04;;;;;;;7.97;6.80;;;;;;;;;;5074958;28;20185;-61
2024/01/20 12:15:34;;;;;;;11.23;7.90;;;;;;;;;;5074585;28;20193;-61
2024/01/20 12:18:01;;;;;;;10.32;6.82;;;;;;;;;;5075061;28;20232;-61
2024/01/20 12:20:28;;;;;;;10.63;7.65;;;;;;;;;;5074990;28;20213;-61
2024/01/20 12:22:57;;;;;;;8.15;7.10;;;;;;;;;;5074982;28;20276;-61
2024/01/20 12:25:26;;;;;;;11.38;6.32;;;;;;;;;;5074942;28;20223;-61
2024/01/20 12:27:53;;;;;;;8.88;6.68;;;;;;;;;;5074590;28;20276;-61
2024/01/20 12:30:21;;;;;;;12.23;7.07;;;;;;;;;;5074880;28;20550;-62
2024/01/20 12:32:48;;;;;;;9.27;7.00;;;;;;;;;;5074809;28;20189;-62
2024/01/20 12:35:15;;;;;;;8.95;7.40;;;;;;;;;;5074738;28;20677;-61
2024/01/20 12:37:42;;;;;;;10.40;7.18;;;;;;;;;;5074623;28;20621;-61
2024/01/20 12:40:09;;;;;;;9.02;7.03;;;;;;;;;;5074767;28;20711;-61
2024/01/20 12:42:38;;;;;;;10.00;7.50;;;;;;;;;;5074455;28;20637;-62
2024/01/20 12:45:06;;;;;;;15.35;6.65;;;;;;;;;;5074595;28;20280;-61
2024/01/20 12:47:33;;;;;;;7.28;6.57;;;;;;;;;;5074555;28;20189;-61
2024/01/20 12:50:00;;;;;;;9.05;6.15;;;;;;;;;;5074292;28;20253;-61
2024/01/20 12:52:27;;;;;;;8.65;6.30;;;;;;;;;;5074329;28;20189;-61
2024/01/20 12:54:55;;;;;;;9.45;6.50;;;;;;;;;;5074232;28;20185;-61
2024/01/20 12:57:23;;;;;;;7.03;6.07;;;;;;;;;;5074311;28;20196;-61
2024/01/20 12:59:51;;;;;;;8.23;7.18;;;;;;;;;;5074375;28;20591;-62
2024/01/20 13:02:18;;;;;;;8.30;6.07;;;;;;;;;;5074163;28;20199;-61
2024/01/20 13:04:45;;;;;;;13.60;7.07;;;;;;;;;;5074104;28;20192;-61
2024/01/20 13:07:12;;;;;;;6.55;5.80;;;;;;;;;;5073953;28;20617;-62
2024/01/20 13:09:39;;;;;;;7.05;5.60;;;;;;;;;;5073700;28;20598;-61
2024/01/20 13:12:06;;;;;;;8.25;6.88;;;;;;;;;;5074119;28;20225;-61
2024/01/20 13:14:34;;;;;;;6.78;4.95;;;;;;;;;;5073965;28;20276;-61
2024/01/20 13:17:03;;;;;;;11.55;6.70;;;;;;;;;;5073759;28;20196;-62
2024/01/20 13:19:30;;;;;;;9.05;6.82;;;;;;;;;;5073614;28;20189;-62
2024/01/20 13:21:57;;;;;;;7.80;6.90;;;;;;;;;;5073722;28;20621;-61
2024/01/20 13:24:25;;;;;;;12.15;8.90;;;;;;;;;;5073928;28;20284;-61
2024/01/20 13:26:52;;;;;;;10.30;7.45;;;;;;;;;;5073736;28;20204;-61
2024/01/20 13:29:19;;;;;;;10.52;8.05;;;;;;;;;;5072892;28;20250;-61
2024/01/20 13:31:46;;;;;;;10.80;7.93;;;;;;;;;;5073599;28;20185;-61
2024/01/20 13:34:14;;;;;;;10.93;6.88;;;;;;;;;;5073560;28;20220;-61
2024/01/20 13:36:41;;;;;;;8.68;6.72;;;;;;;;;;5073325;28;20284;-61
2024/01/20 13:39:08;;;;;;;9.90;6.82;;;;;;;;;;5073598;28;20289;-61
2024/01/20 13:41:35;;;;;;;8.50;7.00;;;;;;;;;;5073533;28;20185;-61
2024/01/20 13:44:03;;;;;;;9.65;6.60;;;;;;;;;;5073369;28;20564;-61
2024/01/20 13:46:30;;;;;;;14.82;6.38;;;;;;;;;;5073378;28;20697;-61
2024/01/20 13:48:57;;;;;;;8.13;6.10;;;;;;;;;;5073153;28;20295;-61
2024/01/20 13:51:31;;;;;;;9.70;8.32;;;;;;;;;;5073394;28;20275;-61
2024/01/20 13:53:58;;;;;;;8.75;6.60;;;;;;;;;;5073366;28;20189;-61
2024/01/20 13:56:25;;;;;;;9.05;6.82;;;;;;;;;;5073093;28;20671;-61
2024/01/20 13:58:53;;;;;;;12.80;7.28;;;;;;;;;;5073298;28;20185;-61
2024/01/20 14:01:22;;;;;;;9.35;5.93;;;;;;;;;;5073148;28;20255;-61
2024/01/20 14:03:49;;;;;;;9.18;6.55;;;;;;;;;;5072929;28;20645;-61
2024/01/20 14:06:16;;;;;;;8.35;6.50;;;;;;;;;;5073242;28;20189;-61
2024/01/20 14:08:44;;;;;;;9.40;6.90;;;;;;;;;;5073002;28;20622;-61
2024/01/20 14:11:11;;;;;;;10.48;6.75;;;;;;;;;;5073119;28;20201;-61
2024/01/20 14:13:38;;;;;;;11.32;6.97;;;;;;;;;;5072972;28;20276;-61
2024/01/20 14:16:05;;;;;;;6.97;6.28;;;;;;;;;;5072832;28;20215;-61
2024/01/20 14:18:32;;;;;;;6.72;5.63;;;;;;;;;;5073058;28;20283;-61
2024/01/20 14:20:59;;;;;;;11.48;6.43;;;;;;;;;;5072765;28;20229;-61
2024/01/20 14:23:26;;;;;;;8.50;7.20;;;;;;;;;;5072998;28;20284;-61
2024/01/20 14:25:54;;;;;;;9.68;6.63;;;;;;;;;;5072869;28;20616;-61
2024/01/20 14:28:22;;;;;;;11.55;5.90;;;;;;;;;;5072735;28;20281;-61
2024/01/20 14:30:49;;;;;;;8.57;5.50;;;;;;;;;;5072680;28;20189;-61
2024/01/20 14:33:16;;;;;;;6.32;5.55;;;;;;;;;;5073007;28;20224;-62
2024/01/20 14:35:43;;;;;;;10.65;6.82;;;;;;;;;;5072901;28;20275;-61